Latest Weather Observations for Mackay

IDQ60801

Issued at 8:05 pm EST Wednesday 1 October 2014 (issued every 30 minutes, with the page automatically refreshed every 10 minutes)

About weather observations | Map of weather stations | Latest weather observations for QLD | Other Formats
Station Details ID: 033119 Name: MACKAY M.O Lat: -21.12 Lon: 149.22 Height: 30.26 m
Data from the previous 72 hours. | See also: Recent months at Mackay
Date/Time
EST
Temp
°C
App
Temp
°C
Dew
Point
Rel
Hum
%
Delta-T
°C
Wind Press
QNH
hPa
Press
MSL
hPa
Rain
since 9 am
mm
Dir
 
Spd
km/h
Gust
km/h
Spd
kts
Gust
kts
01/08:00pm 19.8 20.4 15.4 76 2.6 N 6 9 3 5 1016.4 1016.2 0.0
01/07:30pm 20.4 20.8 15.3 72 3.0 NE 7 11 4 6 1016.4 1016.2 0.0
01/07:00pm 20.7 21.2 15.5 72 3.1 NE 7 11 4 6 1016.3 1016.1 0.0
01/06:30pm 20.8 20.9 15.4 71 3.2 NE 9 13 5 7 1016.1 1015.9 0.0
01/06:00pm 21.4 21.5 15.5 69 3.5 ENE 9 17 5 9 1015.9 1015.7 0.0
01/05:30pm 22.4 22.0 15.2 63 4.3 ENE 11 17 6 9 1015.8 1015.6 0.0
01/05:00pm 23.5 23.7 15.7 61 4.7 ENE 9 15 5 8 1015.7 1015.5 0.0
01/04:30pm 24.0 24.0 15.2 58 5.3 NE 9 15 5 8 1015.6 1015.4 0.0
01/04:00pm 24.2 23.7 15.0 56 5.5 NE 11 17 6 9 1015.6 1015.4 0.0
01/03:30pm 24.7 23.9 15.2 55 5.7 ENE 13 19 7 10 1015.7 1015.5 0.0
01/03:00pm 25.0 24.6 15.2 54 5.9 ENE 11 20 6 11 1015.9 1015.7 0.0
01/02:30pm 24.9 23.9 14.7 53 6.1 ENE 13 20 7 11 1016.3 1016.1 0.0
01/02:00pm 25.3 24.2 14.4 50 6.5 ENE 13 22 7 12 1016.5 1016.3 0.0
01/01:30pm 24.9 23.3 13.8 50 6.5 ENE 15 24 8 13 1017.0 1016.8 0.0
01/01:00pm 24.4 21.9 13.4 50 6.4 E 19 22 10 12 1017.5 1017.3 0.0
01/12:30pm 24.9 23.3 13.8 50 6.5 E 15 20 8 11 1017.9 1017.7 0.0
01/12:00pm 23.7 22.5 12.7 50 6.3 ESE 11 17 6 9 1018.5 1018.3 0.0
01/11:30am 23.8 22.8 13.5 52 6.0 ESE 11 19 6 10 1018.9 1018.7 0.0
01/11:00am 23.5 22.3 12.9 51 6.1 ESE 11 17 6 9 1019.4 1019.2 0.0
01/10:30am 23.5 22.6 13.7 54 5.7 ESE 11 17 6 9 1019.5 1019.3 0.0
01/10:00am 23.9 23.0 13.8 53 5.9 SE 11 17 6 9 1019.8 1019.6 0.0
01/09:30am 23.1 22.0 13.2 53 5.7 SSE 11 17 6 9 1020.0 1019.9 0.0
01/09:00am 23.1 21.8 12.6 51 6.0 SSE 11 15 6 8 1020.0 1019.9 0.0
01/08:30am 21.9 21.2 13.2 57 5.0 S 9 13 5 7 1019.8 1019.7 0.0
01/08:00am 19.6 18.9 14.2 71 3.1 SW 11 15 6 8 1019.6 1019.5 0.0
01/07:30am 17.8 17.0 14.1 79 2.1 SW 11 15 6 8 1019.5 1019.4 0.0
01/07:00am 16.0 14.4 13.9 87 1.2 SW 15 19 8 10 1019.1 1019.0 0.0
01/06:30am 14.7 13.0 13.6 93 0.6 SW 15 17 8 9 1018.7 1018.6 0.0
01/06:00am 14.3 12.5 13.2 93 0.6 SW 15 20 8 11 1018.5 1018.4 0.0
01/05:30am 14.3 12.9 13.4 94 0.5 SW 13 17 7 9 1018.3 1018.1 0.0
01/05:00am 14.7 13.4 13.6 93 0.6 SW 13 17 7 9 1018.3 1018.1 0.0
01/04:30am 14.8 12.7 13.7 93 0.6 WSW 17 20 9 11 1018.0 1017.8 0.0
01/04:00am 15.1 13.9 14.0 93 0.6 SW 13 17 7 9 1017.8 1017.6 0.0
01/03:30am 15.3 14.1 14.1 92 0.7 SW 13 17 7 9 1017.9 1017.7 0.0
01/03:00am 15.5 14.8 14.3 92 0.7 SW 11 13 6 7 1017.9 1017.7 0.0
01/02:30am 15.7 15.1 14.5 93 0.7 WSW 11 13 6 7 1018.1 1017.9 0.0
01/02:00am 15.7 14.6 14.3 91 0.8 SW 13 17 7 9 1018.4 1018.3 0.0
01/01:30am 15.9 14.9 14.5 91 0.8 SW 13 15 7 8 1018.7 1018.6 0.0
01/01:00am 16.4 15.7 14.3 87 1.2 WSW 11 15 6 8 1018.9 1018.8 0.0
01/12:30am 16.5 15.9 14.6 88 1.1 SW 11 13 6 7 1019.2 1019.1 0.0
01/12:00am 16.8 16.2 14.5 86 1.3 SW 11 13 6 7 1019.4 1019.3 0.0
 
Date/Time
EST
Temp
°C
App
Temp
°C
Dew
Point
Rel
Hum
%
Delta-T
°C
Wind Press
QNH
hPa
Press
MSL
hPa
Rain
since 9 am
mm
Dir
 
Spd
km/h
Gust
km/h
Spd
kts
Gust
kts
30/11:30pm 17.0 16.4 14.7 86 1.3 SW 11 13 6 7 1019.5 1019.4 0.0
30/11:00pm 17.7 17.5 14.8 83 1.7 SW 9 11 5 6 1019.6 1019.5 0.0
30/10:30pm 18.2 18.0 14.6 79 2.1 WSW 9 11 5 6 1019.7 1019.6 0.0
30/10:00pm 20.6 20.5 13.4 63 4.1 ENE 6 11 3 6 1019.8 1019.7 0.0
30/09:30pm 20.9 20.3 13.4 62 4.3 E 9 13 5 7 1019.8 1019.7 0.0
30/09:00pm 20.9 20.0 12.6 59 4.7 ENE 9 15 5 8 1019.6 1019.5 0.0
30/08:30pm 20.4 19.9 12.6 61 4.4 NE 7 11 4 6 1019.4 1019.3 0.0
30/08:00pm 20.9 19.8 13.2 61 4.4 E 11 17 6 9 1019.3 1019.2 0.0
30/07:30pm 21.1 20.1 12.4 57 4.9 ENE 9 13 5 7 1019.0 1018.9 0.0
30/07:00pm 21.3 20.1 12.9 58 4.8 E 11 17 6 9 1018.5 1018.4 0.0
30/06:30pm 21.3 21.0 14.3 64 4.1 E 9 15 5 8 1018.2 1018.0 0.0
30/06:00pm 21.7 21.1 14.7 64 4.1 ESE 11 15 6 8 1017.8 1017.6 0.0
30/05:30pm 22.1 21.6 15.0 64 4.2 ESE 11 17 6 9 1017.5 1017.3 0.0
30/05:00pm 22.8 22.4 15.1 62 4.6 SE 11 17 6 9 1017.2 1017.0 0.0
30/04:30pm 23.2 22.4 15.0 60 4.9 SE 13 19 7 10 1017.2 1017.0 0.0
30/04:00pm 23.8 23.6 15.7 60 4.9 SE 11 20 6 11 1017.2 1017.0 0.0
30/03:30pm 24.2 24.0 15.6 58 5.2 SE 11 19 6 10 1017.2 1017.0 0.0
30/03:00pm 24.0 23.3 15.3 58 5.2 SE 13 20 7 11 1017.4 1017.2 0.0
30/02:30pm 24.6 23.9 15.3 56 5.6 SE 13 22 7 12 1017.6 1017.4 0.0
30/02:00pm 24.7 23.8 14.8 54 5.9 SE 13 20 7 11 1017.9 1017.7 0.0
30/01:30pm 24.3 23.6 14.3 53 5.9 ESE 11 17 6 9 1018.1 1017.9 0.0
30/01:00pm 25.4 24.6 15.1 53 6.2 SE 13 20 7 11 1018.4 1018.3 0.0
30/12:30pm 25.0 24.0 14.6 52 6.2 SE 13 20 7 11 1019.0 1018.9 0.0
30/12:00pm 24.6 23.5 14.3 52 6.1 ESE 13 19 7 10 1019.6 1019.5 0.0
30/11:30am 23.9 22.8 13.0 50 6.3 ESE 11 17 6 9 1020.0 1019.9 0.0
30/11:00am 24.9 24.7 14.7 53 6.1 SE 9 15 5 8 1020.4 1020.3 0.0
30/10:30am 24.0 23.2 14.1 54 5.8 SE 11 15 6 8 1020.8 1020.7 0.0
30/10:00am 23.7 23.1 13.6 53 5.9 SE 9 13 5 7 1021.0 1020.9 0.0
30/09:30am 23.2 22.5 13.3 53 5.7 SE 9 13 5 7 1021.2 1021.1 0.0
30/09:00am 23.0 22.8 13.7 55 5.4 SE 7 13 4 7 1021.2 1021.1 0.2
30/08:30am 22.0 22.1 14.5 62 4.4 SSW 7 11 4 6 1021.1 1021.0 0.2
30/08:00am 20.6 20.5 15.0 70 3.3 SW 9 15 5 8 1020.8 1020.7 0.2
30/07:30am 18.8 18.3 15.0 78 2.2 SW 11 15 6 8 1020.6 1020.5 0.2
30/07:00am 17.4 16.8 14.6 83 1.6 SW 11 17 6 9 1020.2 1020.1 0.2
30/06:30am 16.1 15.0 14.2 88 1.1 WSW 13 17 7 9 1019.8 1019.7 0.2
30/06:00am 15.6 14.5 14.4 93 0.7 SW 13 15 7 8 1019.5 1019.4 0.2
30/05:30am 15.6 14.2 14.4 93 0.7 SW 15 19 8 10 1019.2 1019.1 0.2
30/05:00am 15.8 14.8 14.6 93 0.7 SW 13 17 7 9 1019.1 1019.0 0.2
30/04:30am 16.0 15.4 14.6 91 0.8 WSW 11 15 6 8 1018.6 1018.5 0.2
30/04:00am 16.1 15.1 14.5 90 0.9 SW 13 15 7 8 1018.4 1018.3 0.2
30/03:30am 16.3 15.7 14.6 90 1.0 WSW 11 15 6 8 1018.4 1018.3 0.2
30/03:00am 16.5 16.3 14.6 88 1.1 WSW 9 13 5 7 1018.5 1018.4 0.2
30/02:30am 16.7 16.2 14.8 88 1.1 WSW 11 15 6 8 1018.5 1018.4 0.2
30/02:00am 18.4 18.5 14.0 75 2.5 SW 6 11 3 6 1018.7 1018.6 0.2
30/01:30am 20.8 19.8 12.2 58 4.8 E 9 13 5 7 1018.9 1018.8 0.2
30/01:00am 20.6 19.4 12.8 61 4.4 E 11 17 6 9 1019.1 1019.0 0.2
30/12:30am 20.8 19.7 12.0 57 4.9 E 9 15 5 8 1019.4 1019.3 0.2
30/12:00am 20.8 19.8 12.2 58 4.8 ESE 9 15 5 8 1019.7 1019.6 0.2
 
Date/Time
EST
Temp
°C
App
Temp
°C
Dew
Point
Rel
Hum
%
Delta-T
°C
Wind Press
QNH
hPa
Press
MSL
hPa
Rain
since 9 am
mm
Dir
 
Spd
km/h
Gust
km/h
Spd
kts
Gust
kts
29/11:30pm 20.9 19.8 11.9 56 5.0 E 9 17 5 9 1019.9 1019.8 0.2
29/11:00pm 20.7 19.5 12.9 61 4.4 ESE 11 17 6 9 1020.1 1020.0 0.2
29/10:30pm 20.9 18.9 11.5 55 5.2 ESE 13 20 7 11 1020.2 1020.1 0.2
29/10:00pm 20.8 19.8 13.3 62 4.3 ESE 11 20 6 11 1020.2 1020.1 0.2
29/09:30pm 20.9 19.7 14.0 64 4.0 SE 13 19 7 10 1020.0 1019.9 0.2
29/09:00pm 21.2 20.1 14.3 64 4.0 ESE 13 20 7 11 1020.0 1019.9 0.2
29/08:30pm 21.3 20.7 14.6 65 3.9 ESE 11 19 6 10 1019.7 1019.6 0.2
29/08:00pm 21.4 20.6 15.1 67 3.7 ESE 13 20 7 11 1019.4 1019.3 0.2
29/07:30pm 21.3 20.8 15.0 67 3.7 ESE 11 20 6 11 1018.9 1018.8 0.2
29/07:00pm 21.3 20.8 15.0 67 3.7 ESE 11 19 6 10 1018.6 1018.5 0.2
29/06:30pm 21.6 21.2 15.2 67 3.8 E 11 17 6 9 1018.2 1018.0 0.2
29/06:00pm 21.7 21.4 15.5 68 3.7 E 11 19 6 10 1017.8 1017.6 0.2
29/05:30pm 22.2 22.3 15.5 66 4.0 E 9 20 5 11 1017.6 1017.4 0.2
29/05:00pm 22.5 21.5 14.7 61 4.6 E 13 20 7 11 1017.2 1017.0 0.2
29/04:30pm 23.0 22.3 15.5 62 4.5 E 13 20 7 11 1017.0 1016.8 0.2
29/04:00pm 23.3 22.7 15.7 62 4.6 E 13 22 7 12 1016.9 1016.7 0.2
29/03:30pm 23.7 23.0 15.4 59 5.0 E 13 20 7 11 1017.0 1016.8 0.2
29/03:00pm 23.7 22.9 15.2 59 5.1 ESE 13 24 7 13 1017.2 1017.0 0.2
29/02:30pm 23.9 22.5 14.6 56 5.5 E 15 26 8 14 1017.2 1017.0 0.2
29/02:00pm 24.0 23.8 16.8 64 4.4 ESE 13 24 7 13 1017.4 1017.2 0.2
29/01:30pm 24.2 23.8 17.1 64 4.4 ESE 15 24 8 13 1017.9 1017.7 0.2
29/01:00pm 24.5 23.9 16.7 61 4.8 ESE 15 24 8 13 1018.3 1018.1 0.2
29/12:30pm 24.9 24.9 17.2 62 4.8 SE 13 22 7 12 1018.7 1018.6 0.2
29/12:00pm 24.0 24.6 17.6 67 4.0 SE 11 17 6 9 1019.2 1019.1 0.2
29/11:30am 22.2 22.9 17.1 73 3.1 SE 9 15 5 8 1019.6 1019.5 0.2
29/11:00am 22.9 22.8 17.0 69 3.6 SE 13 20 7 11 1019.9 1019.8 0.2
29/10:30am 22.8 23.2 16.2 66 4.0 SE 9 15 5 8 1020.0 1019.9 0.2
29/10:00am 23.2 23.1 15.9 63 4.4 ESE 11 17 6 9 1020.2 1020.1 0.0
29/09:30am 21.9 22.2 16.1 69 3.5 E 9 15 5 8 1020.3 1020.2 0.0
29/09:00am 20.2 19.9 17.4 84 1.7 ESE 15 24 8 13 1020.2 1020.1 0.2
29/08:30am 22.0 22.7 16.2 69 3.5 SSE 7 13 4 7 1020.2 1020.1 0.0
29/08:00am 20.8 21.9 17.0 79 2.3 SW 7 13 4 7 1020.1 1020.0 0.0
29/07:30am 20.1 20.8 17.0 82 1.9 SW 9 15 5 8 1019.8 1019.7 0.0
29/07:00am 18.7 19.3 16.7 88 1.2 SW 9 13 5 7 1019.5 1019.4 0.0
29/06:30am 18.1 17.9 16.6 91 0.9 SW 13 19 7 10 1019.1 1019.0 0.0
29/06:00am 17.8 18.7 16.6 93 0.7 SW 7 11 4 6 1018.8 1018.7 0.0
29/05:30am 18.5 19.4 16.7 89 1.1 SW 7 11 4 6 1018.5 1018.4 0.0
29/05:00am 20.7 20.6 16.0 74 2.8 ESE 11 19 6 10 1018.0 1017.8 0.0
29/04:30am 21.0 20.7 15.4 70 3.3 ESE 11 19 6 10 1017.7 1017.5 0.0
29/04:00am 21.3 21.0 15.4 69 3.5 E 11 19 6 10 1017.5 1017.3 0.0
29/03:30am 21.3 20.8 16.0 72 3.2 E 13 20 7 11 1017.5 1017.3 0.0
29/03:00am 21.4 21.8 16.3 72 3.1 E 9 15 5 8 1017.5 1017.3 0.0
29/02:30am 21.2 21.1 16.0 72 3.1 E 11 19 6 10 1017.7 1017.5 0.0
29/02:00am 21.4 20.9 15.9 71 3.3 E 13 20 7 11 1017.9 1017.7 0.0
29/01:30am 21.5 21.5 16.2 72 3.2 E 11 19 6 10 1018.2 1018.0 0.0
29/01:00am 21.6 21.2 16.3 72 3.2 E 13 24 7 13 1018.4 1018.3 0.0
29/12:30am 21.5 20.7 16.0 71 3.3 E 15 22 8 12 1018.5 1018.4 0.0
29/12:00am 21.6 20.7 15.8 69 3.5 E 15 22 8 12 1018.6 1018.5 0.0
 
Date/Time
EST
Temp
°C
App
Temp
°C
Dew
Point
Rel
Hum
%
Delta-T
°C
Wind Press
QNH
hPa
Press
MSL
hPa
Rain
since 9 am
mm
Dir
 
Spd
km/h
Gust
km/h
Spd
kts
Gust
kts
28/11:30pm 21.6 20.5 16.3 72 3.2 ENE 17 26 9 14 1018.6 1018.5 0.0
28/11:00pm 21.6 20.7 16.8 74 2.9 E 17 24 9 13 1018.8 1018.7 0.0
28/10:30pm 21.5 20.7 17.1 76 2.7 ENE 17 26 9 14 1019.0 1018.9 0.0
28/10:00pm 21.6 20.7 16.8 74 2.9 E 17 24 9 13 1019.4 1019.3 0.0
28/09:30pm 21.8 21.0 17.2 75 2.8 E 17 22 9 12 1019.3 1019.2 0.0
28/09:00pm 21.8 21.5 17.4 76 2.7 E 15 20 8 11 1019.3 1019.2 0.0
28/08:30pm 21.9 21.2 17.3 75 2.8 E 17 22 9 12 1019.2 1019.1 0.0

Other Formats:

Comma delimited format used in spreadsheet applications
http://www.bom.gov.au/fwo/IDQ60801/IDQ60801.94367.axf

JavaScript Object Notation format (JSON) in row-major order
http://www.bom.gov.au/fwo/IDQ60801/IDQ60801.94367.json